Time;durP1;ratioP1;P1;durP2;ratioP2;P2;SDS_P1;SDS_P2;PMS_P1;PMS_P2;Temp;Humidity;BMP_temperature;BMP_pressure;BME280_temperature;BME280_humidity;BME280_pressure;Samples;Min_cycle;Max_cycle;Signal;HPM_P1;HPM_P2
2021/03/10 00:01:43;;;;;;;18.47;13.73;;;3.40;70.30;;;;;;5029917;28;20452;-78
2021/03/10 00:04:10;;;;;;;19.00;13.60;;;3.50;71.10;;;;;;5031031;28;20971;-81
2021/03/10 00:06:36;;;;;;;19.53;14.00;;;3.50;71.10;;;;;;5027053;28;21016;-79
2021/03/10 00:09:03;;;;;;;16.47;13.37;;;3.50;70.60;;;;;;5026529;28;20500;-80
2021/03/10 00:11:29;;;;;;;18.53;14.03;;;3.50;70.50;;;;;;5027808;28;20550;-78
2021/03/10 00:13:55;;;;;;;18.23;13.20;;;3.50;70.80;;;;;;5031873;28;20460;-80
2021/03/10 00:16:23;;;;;;;19.80;15.07;;;3.50;70.60;;;;;;5027784;28;20474;-78
2021/03/10 00:18:49;;;;;;;16.47;14.10;;;3.60;70.60;;;;;;5031167;28;20980;-78
2021/03/10 00:21:16;;;;;;;17.63;13.27;;;3.50;70.80;;;;;;5025501;28;20521;-78
2021/03/10 00:23:42;;;;;;;15.77;13.17;;;3.50;70.70;;;;;;5024016;28;20618;-78
2021/03/10 00:26:08;;;;;;;16.33;14.07;;;3.60;70.60;;;;;;5033326;28;21193;-78
2021/03/10 00:28:35;;;;;;;16.30;13.70;;;3.50;70.30;;;;;;5040678;28;20484;-78
2021/03/10 00:31:01;;;;;;;17.10;13.63;;;3.50;70.40;;;;;;5037024;28;20917;-78
2021/03/10 00:33:28;;;;;;;17.50;12.70;;;3.60;70.30;;;;;;5030418;28;20490;-79
2021/03/10 00:35:55;;;;;;;17.27;14.03;;;3.50;70.40;;;;;;5038254;28;20542;-78
2021/03/10 00:38:21;;;;;;;19.27;14.77;;;3.50;70.50;;;;;;5031547;28;20480;-78
2021/03/10 00:40:47;;;;;;;20.97;14.33;;;3.50;70.30;;;;;;5030604;28;21028;-78
2021/03/10 00:43:14;;;;;;;20.00;14.93;;;3.50;70.40;;;;;;5035337;28;20550;-78
2021/03/10 00:45:40;;;;;;;20.33;13.60;;;3.50;70.40;;;;;;5045775;28;20447;-79
2021/03/10 00:48:07;;;;;;;17.73;13.50;;;3.60;70.40;;;;;;5046606;28;20447;-78
2021/03/10 00:50:34;;;;;;;17.80;13.97;;;3.60;70.60;;;;;;5039327;28;20602;-79
2021/03/10 00:53:01;;;;;;;19.03;13.97;;;3.60;70.60;;;;;;5041789;28;20438;-78
2021/03/10 00:55:27;;;;;;;21.90;14.17;;;3.60;70.60;;;;;;5024208;28;20515;-77
2021/03/10 00:57:54;;;;;;;18.60;15.20;;;3.50;70.60;;;;;;5029592;28;20461;-78
2021/03/10 01:00:21;;;;;;;18.00;14.53;;;3.60;71.40;;;;;;5031761;28;20463;-78
2021/03/10 01:02:48;;;;;;;22.23;15.77;;;3.50;71.40;;;;;;5024125;28;20478;-77
2021/03/10 01:05:14;;;;;;;21.80;16.07;;;3.50;71.90;;;;;;5020638;28;20489;-78
2021/03/10 01:07:42;;;;;;;23.70;15.47;;;3.50;71.10;;;;;;5029302;28;20492;-80
2021/03/10 01:10:10;;;;;;;19.67;15.10;;;3.50;71.10;;;;;;5027342;28;20485;-78
2021/03/10 01:12:37;;;;;;;20.67;15.60;;;3.50;71.20;;;;;;5026302;28;20462;-78
2021/03/10 01:15:06;;;;;;;19.13;15.00;;;3.50;71.30;;;;;;5028121;28;20520;-79
2021/03/10 01:17:32;;;;;;;26.43;15.67;;;3.50;71.10;;;;;;5026330;28;20522;-78
2021/03/10 01:19:58;;;;;;;17.50;14.33;;;3.60;71.60;;;;;;5036699;28;20477;-78
2021/03/10 01:22:25;;;;;;;19.97;14.77;;;3.50;71.40;;;;;;5040732;28;20501;-78
2021/03/10 01:24:52;;;;;;;18.50;14.60;;;3.60;71.10;;;;;;5041756;28;20504;-78
2021/03/10 01:27:18;;;;;;;18.97;14.60;;;3.60;71.00;;;;;;5038541;28;20523;-77
2021/03/10 01:29:46;;;;;;;19.13;15.07;;;3.60;71.20;;;;;;5039980;28;20458;-79
2021/03/10 01:32:12;;;;;;;21.70;15.70;;;3.60;71.40;;;;;;5036102;28;20480;-77
2021/03/10 01:34:39;;;;;;;22.23;15.50;;;3.60;70.90;;;;;;5029785;28;20960;-80
2021/03/10 01:37:05;;;;;;;21.00;16.40;;;3.70;71.00;;;;;;5029456;28;20455;-80
2021/03/10 01:39:31;;;;;;;20.33;15.43;;;3.70;71.20;;;;;;5035869;28;20475;-78
2021/03/10 01:41:59;;;;;;;22.10;15.57;;;3.70;71.60;;;;;;5018025;28;20484;-78
2021/03/10 01:44:25;;;;;;;19.40;16.40;;;3.70;71.40;;;;;;5034116;28;20465;-79
2021/03/10 01:46:52;;;;;;;22.30;17.33;;;3.70;71.20;;;;;;5031140;28;20447;-78
2021/03/10 01:49:19;;;;;;;23.23;16.23;;;3.70;71.10;;;;;;5027892;28;20722;-78
2021/03/10 01:51:46;;;;;;;19.90;16.17;;;3.70;71.20;;;;;;5039890;28;20551;-78
2021/03/10 01:54:13;;;;;;;20.40;14.63;;;3.70;71.00;;;;;;5024213;28;20466;-78
2021/03/10 01:56:40;;;;;;;20.50;16.07;;;3.70;70.80;;;;;;5029155;28;20541;-78
2021/03/10 01:59:07;;;;;;;20.27;16.67;;;3.70;70.90;;;;;;5033605;28;20890;-79
2021/03/10 02:01:33;;;;;;;23.40;16.03;;;3.70;70.90;;;;;;5037446;28;20551;-78
2021/03/10 02:04:03;;;;;;;21.70;17.10;;;3.70;70.80;;;;;;5033027;28;20447;-79
2021/03/10 02:06:42;;;;;;;22.60;15.90;;;3.70;70.50;;;;;;5039919;28;20455;-78
2021/03/10 02:09:15;;;;;;;18.83;15.37;;;3.70;70.60;;;;;;5036061;28;20547;-78
2021/03/10 02:11:50;;;;;;;21.57;15.97;;;3.80;70.50;;;;;;5028468;28;20535;-78
2021/03/10 02:14:24;;;;;;;23.83;16.90;;;3.70;70.60;;;;;;5041431;28;20544;-77
2021/03/10 02:16:55;;;;;;;20.40;16.87;;;3.80;70.70;;;;;;5044581;28;20537;-78
2021/03/10 02:20:00;;;;;;;23.63;16.80;;;3.80;70.80;;;;;;5035061;28;20494;-78
2021/03/10 02:22:49;;;;;;;21.50;16.67;;;3.80;71.00;;;;;;5027138;28;20470;-78
2021/03/10 02:25:26;;;;;;;23.20;17.47;;;3.80;71.00;;;;;;5028421;28;20488;-78
2021/03/10 02:27:57;;;;;;;23.73;17.27;;;3.80;70.80;;;;;;5036337;28;20533;-78
2021/03/10 02:30:27;;;;;;;22.27;16.23;;;3.80;70.80;;;;;;5026320;28;20450;-78
2021/03/10 02:32:56;;;;;;;24.53;16.43;;;3.80;70.90;;;;;;5020550;28;20454;-79
2021/03/10 02:35:24;;;;;;;23.47;17.43;;;3.80;70.90;;;;;;5031839;28;20527;-79
2021/03/10 02:37:54;;;;;;;22.70;16.47;;;3.80;70.90;;;;;;5051341;28;20542;-78
2021/03/10 02:40:23;;;;;;;21.97;16.80;;;3.80;70.90;;;;;;5044516;28;20482;-79
2021/03/10 02:42:50;;;;;;;22.17;17.17;;;3.80;71.00;;;;;;5026935;28;20550;-78
2021/03/10 02:45:20;;;;;;;21.47;18.10;;;3.90;71.10;;;;;;5031645;28;20453;-80
2021/03/10 02:47:47;;;;;;;22.83;18.27;;;3.80;71.20;;;;;;5043592;28;20456;-78
2021/03/10 02:50:14;;;;;;;24.93;18.60;;;3.80;71.20;;;;;;5033760;28;20566;-78
2021/03/10 02:52:41;;;;;;;23.60;18.10;;;3.80;71.20;;;;;;5032498;28;20515;-78
2021/03/10 02:55:09;;;;;;;21.70;17.60;;;3.80;71.50;;;;;;5031784;28;20538;-80
2021/03/10 02:57:36;;;;;;;23.97;18.43;;;3.80;71.60;;;;;;5039338;28;20465;-78
2021/03/10 03:00:06;;;;;;;26.57;18.97;;;3.80;71.20;;;;;;5035570;28;20921;-77
2021/03/10 03:02:34;;;;;;;25.13;19.97;;;3.80;71.50;;;;;;5024540;28;20795;-78
2021/03/10 03:05:02;;;;;;;28.30;20.10;;;3.80;71.70;;;;;;5036409;28;20448;-77
2021/03/10 03:07:29;;;;;;;27.20;20.10;;;3.70;71.90;;;;;;5047275;28;20477;-78
2021/03/10 03:09:55;;;;;;;24.73;18.17;;;3.70;72.20;;;;;;5043773;28;20476;-77
2021/03/10 03:12:21;;;;;;;26.00;19.27;;;3.70;72.30;;;;;;5027238;28;20566;-76
2021/03/10 03:14:49;;;;;;;28.60;19.70;;;3.70;72.30;;;;;;5025095;28;21419;-78
2021/03/10 03:17:16;;;;;;;28.47;20.53;;;3.70;72.60;;;;;;5030150;28;20486;-77
2021/03/10 03:19:43;;;;;;;26.20;21.07;;;3.70;72.50;;;;;;5040688;28;20549;-78
2021/03/10 03:22:10;;;;;;;29.03;21.03;;;3.70;73.10;;;;;;5028638;28;20856;-79
2021/03/10 03:24:37;;;;;;;31.63;22.93;;;3.60;73.30;;;;;;5030431;28;20471;-77
2021/03/10 03:27:04;;;;;;;29.73;20.70;;;3.60;73.30;;;;;;5026504;28;21405;-79
2021/03/10 03:29:31;;;;;;;32.33;22.97;;;3.70;73.90;;;;;;5029523;28;20461;-77
2021/03/10 03:31:59;;;;;;;33.20;22.40;;;3.60;75.40;;;;;;5024103;28;22509;-78
2021/03/10 03:34:25;;;;;;;31.67;22.37;;;3.50;77.00;;;;;;5032117;28;20480;-77
2021/03/10 03:36:54;;;;;;;34.33;24.70;;;3.50;78.10;;;;;;5040251;28;20998;-79
2021/03/10 03:39:21;;;;;;;33.57;24.87;;;3.30;79.50;;;;;;5040170;28;20451;-77
2021/03/10 03:41:50;;;;;;;37.27;25.67;;;3.30;80.20;;;;;;5027525;28;20528;-77
2021/03/10 03:44:17;;;;;;;42.03;27.70;;;3.30;81.80;;;;;;5030081;28;20461;-78
2021/03/10 03:46:44;;;;;;;36.47;26.00;;;3.30;82.10;;;;;;5023146;28;20448;-78
2021/03/10 03:49:10;;;;;;;41.53;25.90;;;3.30;83.30;;;;;;5018192;28;20468;-77
2021/03/10 03:51:36;;;;;;;40.40;26.27;;;3.30;84.00;;;;;;5028081;28;20455;-77
2021/03/10 03:54:05;;;;;;;37.97;26.00;;;3.30;84.40;;;;;;5028095;28;20599;-78
2021/03/10 03:56:33;;;;;;;44.60;27.70;;;3.30;84.90;;;;;;5015671;28;20868;-78
2021/03/10 03:58:59;;;;;;;38.73;27.07;;;3.20;85.20;;;;;;5024803;28;20889;-78
2021/03/10 04:01:26;;;;;;;42.40;27.00;;;3.20;85.70;;;;;;5031873;28;20517;-78
2021/03/10 04:03:53;;;;;;;44.73;28.63;;;3.30;86.50;;;;;;5025739;28;20451;-78
2021/03/10 04:06:19;;;;;;;41.07;26.53;;;3.20;86.50;;;;;;5026977;28;20489;-78
2021/03/10 04:08:46;;;;;;;44.33;28.20;;;3.20;87.30;;;;;;5019273;28;20486;-78
2021/03/10 04:11:15;;;;;;;39.40;27.53;;;3.20;87.80;;;;;;5036539;28;20589;-77
2021/03/10 04:13:42;;;;;;;40.73;27.10;;;3.20;88.10;;;;;;5023654;28;20478;-76
2021/03/10 04:16:09;;;;;;;39.23;25.97;;;3.20;88.70;;;;;;5038224;28;20454;-77
2021/03/10 04:18:37;;;;;;;40.47;28.23;;;3.20;88.90;;;;;;5048305;28;20464;-78
2021/03/10 04:21:03;;;;;;;40.97;28.33;;;3.20;89.20;;;;;;5050689;28;20833;-79
2021/03/10 04:23:30;;;;;;;41.67;27.90;;;3.20;89.80;;;;;;5045669;28;20609;-80
2021/03/10 04:25:56;;;;;;;38.50;27.27;;;3.20;89.80;;;;;;5058911;28;20473;-79
2021/03/10 04:28:23;;;;;;;42.40;27.97;;;3.20;90.00;;;;;;5059020;28;20457;-79
2021/03/10 04:30:51;;;;;;;39.03;26.70;;;3.20;89.80;;;;;;5048858;28;20443;-80
2021/03/10 04:33:18;;;;;;;37.83;27.60;;;3.30;90.00;;;;;;5052273;28;20446;-81
2021/03/10 04:35:44;;;;;;;40.63;28.00;;;3.30;89.70;;;;;;5044263;28;20474;-77
2021/03/10 04:38:10;;;;;;;41.97;26.53;;;3.20;90.20;;;;;;5041590;28;20449;-77
2021/03/10 04:40:37;;;;;;;40.03;27.40;;;3.20;89.20;;;;;;5026506;28;20522;-77
2021/03/10 04:43:03;;;;;;;37.67;27.00;;;3.20;89.50;;;;;;5024370;28;20583;-79
2021/03/10 04:45:30;;;;;;;42.53;28.50;;;3.20;90.00;;;;;;5024578;28;20488;-78
2021/03/10 04:47:57;;;;;;;45.50;26.97;;;3.20;89.60;;;;;;5011208;28;20457;-78
2021/03/10 04:50:25;;;;;;;40.50;27.00;;;3.20;88.90;;;;;;5030586;28;20451;-79
2021/03/10 04:52:51;;;;;;;36.27;26.70;;;3.20;89.30;;;;;;5028095;28;20478;-77
2021/03/10 04:55:17;;;;;;;43.00;28.37;;;3.10;89.10;;;;;;5029022;28;20561;-77
2021/03/10 04:57:44;;;;;;;40.43;27.87;;;3.10;89.30;;;;;;5021646;28;21088;-79
2021/03/10 05:00:11;;;;;;;38.97;28.00;;;3.20;89.50;;;;;;5026457;28;20584;-78
2021/03/10 05:02:39;;;;;;;42.00;27.90;;;3.10;89.20;;;;;;5034794;28;21096;-79
2021/03/10 05:05:08;;;;;;;44.83;29.23;;;3.10;89.40;;;;;;5035624;28;20550;-80
2021/03/10 05:07:34;;;;;;;42.97;27.80;;;3.10;89.70;;;;;;5041206;28;20442;-78
2021/03/10 05:10:01;;;;;;;41.10;28.80;;;3.10;89.90;;;;;;5035272;28;20505;-77
2021/03/10 05:12:30;;;;;;;39.57;27.67;;;3.10;89.80;;;;;;5028166;28;20464;-78
2021/03/10 05:14:56;;;;;;;40.50;27.90;;;3.10;89.70;;;;;;5028643;28;20562;-78
2021/03/10 05:17:22;;;;;;;37.47;26.80;;;3.10;90.10;;;;;;5030271;28;20850;-77
2021/03/10 05:19:49;;;;;;;42.67;27.90;;;3.20;90.10;;;;;;5031767;28;20549;-78
2021/03/10 05:22:16;;;;;;;42.10;27.63;;;3.20;89.30;;;;;;5028024;28;20488;-79
2021/03/10 05:24:42;;;;;;;43.33;28.27;;;3.20;89.40;;;;;;5029004;28;20900;-77
2021/03/10 05:27:08;;;;;;;44.90;28.37;;;3.30;89.70;;;;;;5027433;28;20502;-77
2021/03/10 05:29:35;;;;;;;44.13;29.30;;;3.20;89.60;;;;;;5031097;28;20741;-78
2021/03/10 05:32:02;;;;;;;49.10;29.60;;;3.20;90.00;;;;;;5029166;28;20463;-78
2021/03/10 05:34:28;;;;;;;44.53;30.70;;;3.20;89.70;;;;;;5031053;28;20453;-77
2021/03/10 05:36:55;;;;;;;42.17;27.97;;;3.30;89.80;;;;;;5028336;28;20462;-77
2021/03/10 05:39:22;;;;;;;40.57;29.53;;;3.30;89.50;;;;;;5029393;28;20912;-76
2021/03/10 05:41:49;;;;;;;43.27;28.57;;;3.30;89.70;;;;;;5030131;28;20467;-77
2021/03/10 05:44:16;;;;;;;47.93;30.50;;;3.30;90.00;;;;;;5027524;28;20482;-76
2021/03/10 05:46:42;;;;;;;39.23;26.10;;;3.30;90.00;;;;;;5028958;28;20459;-80
2021/03/10 05:49:09;;;;;;;43.57;28.77;;;3.30;90.20;;;;;;5032604;28;20456;-75
2021/03/10 05:51:36;;;;;;;37.90;26.83;;;3.30;90.20;;;;;;5032079;28;20547;-78
2021/03/10 05:54:05;;;;;;;41.50;29.33;;;3.30;90.20;;;;;;5027477;28;20457;-78
2021/03/10 05:56:31;;;;;;;44.97;28.70;;;3.30;90.20;;;;;;5025754;28;20929;-76
2021/03/10 05:58:59;;;;;;;46.57;29.20;;;3.40;90.20;;;;;;5026515;28;21019;-78
2021/03/10 06:01:25;;;;;;;40.03;28.10;;;3.40;89.40;;;;;;5024156;28;20797;-76
2021/03/10 06:03:55;;;;;;;43.27;29.73;;;3.40;89.60;;;;;;5015681;28;20492;-77
2021/03/10 06:06:23;;;;;;;41.37;29.27;;;3.50;89.90;;;;;;5030152;28;20458;-77
2021/03/10 06:08:49;;;;;;;43.83;28.80;;;3.50;89.90;;;;;;5033959;28;20563;-77
2021/03/10 06:11:24;;;;;;;41.47;28.27;;;3.60;89.60;;;;;;5025941;28;20467;-76
2021/03/10 06:13:51;;;;;;;41.40;28.67;;;3.50;88.80;;;;;;5026746;28;21298;-74
2021/03/10 06:16:22;;;;;;;38.80;28.67;;;3.60;89.10;;;;;;5024554;28;20525;-77
2021/03/10 06:18:49;;;;;;;42.37;28.17;;;3.70;89.30;;;;;;5026016;28;20936;-77
2021/03/10 06:21:17;;;;;;;44.63;29.50;;;3.70;88.30;;;;;;5027095;28;20468;-79
2021/03/10 06:23:52;;;;;;;43.73;29.53;;;3.70;88.70;;;;;;5024185;28;20578;-78
2021/03/10 06:26:19;;;;;;;40.10;28.40;;;3.80;88.20;;;;;;5029061;28;20800;-80
2021/03/10 06:28:47;;;;;;;37.70;26.90;;;3.80;87.70;;;;;;5028110;28;20949;-78
2021/03/10 06:31:22;;;;;;;39.93;27.43;;;3.90;87.30;;;;;;5025231;28;20482;-78
2021/03/10 06:33:59;;;;;;;37.50;26.80;;;3.90;86.50;;;;;;5027111;28;20451;-75
2021/03/10 06:36:27;;;;;;;40.47;27.93;;;3.90;86.50;;;;;;5027203;28;20953;-76
2021/03/10 06:38:54;;;;;;;39.80;27.60;;;3.90;85.80;;;;;;5022533;28;20471;-75
2021/03/10 06:41:31;;;;;;;43.23;27.40;;;3.90;86.00;;;;;;5027240;28;20511;-76
2021/03/10 06:43:58;;;;;;;43.10;28.50;;;3.90;86.00;;;;;;5033870;28;20460;-79
2021/03/10 06:46:25;;;;;;;40.33;27.67;;;4.00;85.40;;;;;;5033681;28;20453;-76
2021/03/10 06:48:53;;;;;;;41.37;27.20;;;4.00;85.60;;;;;;5031176;28;20452;-76
2021/03/10 06:51:20;;;;;;;38.10;25.87;;;4.00;85.30;;;;;;5031789;28;20551;-74
2021/03/10 06:53:47;;;;;;;42.17;27.67;;;4.10;84.80;;;;;;5025539;28;20538;-76
2021/03/10 06:56:21;;;;;;;41.10;26.33;;;4.10;84.90;;;;;;5020079;28;20504;-75
2021/03/10 06:59:03;;;;;;;37.00;26.70;;;4.10;84.40;;;;;;5021920;28;20553;-78
2021/03/10 07:01:38;;;;;;;40.17;26.50;;;4.00;85.20;;;;;;5021785;28;20479;-80
2021/03/10 07:04:05;;;;;;;40.60;27.53;;;4.10;85.10;;;;;;5027429;28;20820;-78
2021/03/10 07:06:34;;;;;;;38.73;27.03;;;4.10;84.40;;;;;;5029119;28;21043;-81
2021/03/10 07:09:01;;;;;;;42.30;27.70;;;4.20;84.80;;;;;;5027238;28;20451;-77
2021/03/10 07:11:27;;;;;;;40.10;26.70;;;4.20;84.00;;;;;;5020688;28;21005;-77
2021/03/10 07:13:54;;;;;;;41.50;27.73;;;4.20;83.50;;;;;;5024262;28;20445;-78
2021/03/10 07:16:22;;;;;;;40.90;25.60;;;4.10;84.00;;;;;;5017136;28;21047;-76
2021/03/10 07:18:50;;;;;;;40.50;26.90;;;4.20;83.80;;;;;;5016708;28;20453;-77
2021/03/10 07:21:25;;;;;;;43.30;27.00;;;4.30;82.90;;;;;;5024666;28;20532;-78
2021/03/10 07:23:54;;;;;;;41.17;27.10;;;4.30;83.20;;;;;;5021787;28;20861;-77
2021/03/10 07:26:21;;;;;;;43.73;28.77;;;4.30;82.90;;;;;;5026598;28;20491;-78
2021/03/10 07:28:51;;;;;;;39.73;27.00;;;4.30;83.00;;;;;;5030439;28;20488;-78
2021/03/10 07:31:20;;;;;;;42.73;27.40;;;4.30;83.30;;;;;;5016800;28;20451;-79
2021/03/10 07:33:53;;;;;;;42.10;27.60;;;4.30;83.30;;;;;;5026065;28;20455;-78
2021/03/10 07:36:32;;;;;;;46.03;29.07;;;4.40;83.20;;;;;;5023339;28;21028;-77
2021/03/10 07:38:58;;;;;;;47.20;29.30;;;4.50;82.90;;;;;;5031766;28;20472;-76
2021/03/10 07:41:33;;;;;;;45.53;29.20;;;4.50;82.60;;;;;;5031349;28;20477;-77
2021/03/10 07:44:00;;;;;;;45.47;27.63;;;4.60;82.40;;;;;;5030219;28;20451;-77
2021/03/10 07:46:29;;;;;;;39.13;27.40;;;4.70;82.10;;;;;;5029137;28;20452;-78
2021/03/10 07:48:58;;;;;;;46.53;29.60;;;4.60;82.40;;;;;;5041479;28;20972;-78
2021/03/10 07:51:26;;;;;;;41.90;26.70;;;4.70;82.60;;;;;;5026537;28;20867;-79
2021/03/10 07:53:53;;;;;;;43.90;28.50;;;4.50;82.30;;;;;;5036345;28;20458;-75
2021/03/10 07:56:24;;;;;;;46.13;29.80;;;4.70;82.50;;;;;;5043823;28;20508;-75
2021/03/10 07:58:51;;;;;;;46.23;29.20;;;4.70;82.00;;;;;;5039945;28;20687;-75
2021/03/10 08:01:18;;;;;;;43.17;27.90;;;5.00;82.00;;;;;;5037354;28;20797;-77
2021/03/10 08:03:45;;;;;;;44.47;28.83;;;5.20;80.10;;;;;;5026699;28;20459;-76
2021/03/10 08:06:13;;;;;;;48.33;29.93;;;5.30;80.00;;;;;;5020765;28;20452;-75
2021/03/10 08:08:41;;;;;;;38.90;25.93;;;5.40;78.90;;;;;;5018168;28;20483;-74
2021/03/10 08:11:13;;;;;;;42.70;29.37;;;5.40;78.50;;;;;;5016012;28;20545;-75
2021/03/10 08:13:41;;;;;;;41.93;27.13;;;5.30;78.90;;;;;;5029558;28;20549;-75
2021/03/10 08:16:12;;;;;;;39.90;27.80;;;5.40;79.30;;;;;;5023669;28;20452;-74
2021/03/10 08:18:45;;;;;;;42.50;28.30;;;5.50;78.50;;;;;;5024365;28;20455;-75
2021/03/10 08:21:15;;;;;;;44.30;27.73;;;5.50;78.20;;;;;;5023998;28;20508;-75
2021/03/10 08:23:41;;;;;;;38.27;27.87;;;5.60;77.80;;;;;;5012990;28;20498;-74
2021/03/10 08:26:08;;;;;;;40.90;27.17;;;5.60;77.40;;;;;;5023424;28;20449;-75
2021/03/10 08:28:37;;;;;;;42.60;27.53;;;5.70;77.20;;;;;;5027714;28;20459;-75
2021/03/10 08:31:06;;;;;;;37.80;26.60;;;5.70;76.80;;;;;;5017538;28;20523;-76
2021/03/10 08:33:44;;;;;;;40.23;28.03;;;5.80;77.10;;;;;;5022080;28;20458;-79
2021/03/10 08:36:12;;;;;;;42.60;27.00;;;5.60;76.60;;;;;;5033081;28;20508;-79
2021/03/10 08:38:39;;;;;;;40.57;27.00;;;5.60;77.30;;;;;;5026536;28;20465;-77
2021/03/10 08:41:07;;;;;;;41.77;27.50;;;5.60;76.80;;;;;;5029413;28;20472;-69
2021/03/10 08:43:34;;;;;;;45.80;28.07;;;5.70;76.30;;;;;;5020404;28;20494;-71
2021/03/10 08:46:02;;;;;;;43.80;29.87;;;5.70;76.20;;;;;;5020000;28;20465;-73
2021/03/10 08:48:33;;;;;;;38.17;26.10;;;5.80;76.90;;;;;;5030915;28;20725;-72
2021/03/10 08:51:01;;;;;;;39.73;27.07;;;6.00;76.50;;;;;;5014307;28;20461;-72
2021/03/10 08:53:29;;;;;;;36.90;27.40;;;6.60;74.80;;;;;;5018579;28;20462;-72
2021/03/10 08:56:05;;;;;;;38.40;26.50;;;6.60;75.00;;;;;;5019504;28;20472;-77
2021/03/10 08:58:31;;;;;;;40.00;27.00;;;6.40;74.80;;;;;;5018643;28;20465;-75
2021/03/10 09:00:58;;;;;;;40.23;27.37;;;6.50;74.30;;;;;;5012493;28;20463;-74
2021/03/10 09:03:24;;;;;;;37.50;26.37;;;6.40;74.80;;;;;;5022478;28;20453;-75
2021/03/10 09:05:52;;;;;;;37.70;26.33;;;6.50;74.60;;;;;;5016160;28;20685;-74
2021/03/10 09:08:23;;;;;;;40.33;27.70;;;6.90;73.90;;;;;;5021294;28;20967;-76
2021/03/10 09:10:53;;;;;;;37.27;26.57;;;7.20;73.20;;;;;;5020706;28;20459;-72
2021/03/10 09:13:20;;;;;;;35.33;25.37;;;7.20;72.50;;;;;;5015991;28;20549;-73
2021/03/10 09:15:47;;;;;;;38.57;25.23;;;7.20;72.00;;;;;;5023175;28;20503;-73
2021/03/10 09:18:13;;;;;;;36.73;26.50;;;7.00;71.70;;;;;;5025126;28;20458;-75
2021/03/10 09:20:42;;;;;;;35.80;27.13;;;6.80;72.60;;;;;;5032101;28;20571;-74
2021/03/10 09:23:10;;;;;;;34.20;25.10;;;6.90;72.60;;;;;;5021767;28;20576;-72
2021/03/10 09:25:37;;;;;;;33.60;24.10;;;7.20;72.10;;;;;;5020897;28;20464;-73
2021/03/10 09:28:07;;;;;;;33.97;24.60;;;7.40;71.60;;;;;;5014873;28;20457;-75
2021/03/10 09:30:35;;;;;;;39.75;27.98;;;7.40;70.70;;;;;;5023449;28;20447;-75
2021/03/10 09:33:02;;;;;;;36.63;25.40;;;7.30;70.50;;;;;;5017144;28;20207;-73
2021/03/10 09:35:30;;;;;;;38.23;25.20;;;7.30;70.40;;;;;;5028651;28;20463;-72
2021/03/10 09:37:59;;;;;;;32.90;24.60;;;7.40;70.60;;;;;;5014884;28;20455;-74
2021/03/10 09:40:35;;;;;;;37.10;25.60;;;7.80;69.50;;;;;;5007959;28;20489;-73
2021/03/10 09:43:03;;;;;;;35.33;25.33;;;7.90;69.30;;;;;;5016072;28;20474;-74
2021/03/10 09:45:32;;;;;;;31.20;24.03;;;7.90;69.00;;;;;;5020465;28;20496;-72
2021/03/10 09:47:59;;;;;;;36.50;26.67;;;8.00;68.20;;;;;;5009694;28;20466;-74
2021/03/10 09:50:28;;;;;;;34.87;25.00;;;7.70;68.80;;;;;;5021814;28;20481;-74
2021/03/10 09:52:55;;;;;;;34.03;23.67;;;7.80;68.40;;;;;;5012160;28;20466;-78
2021/03/10 09:55:25;;;;;;;32.90;23.30;;;7.60;67.40;;;;;;5027951;28;20806;-77
2021/03/10 09:58:01;;;;;;;37.28;27.80;;;7.50;67.80;;;;;;5014077;28;21019;-74
2021/03/10 10:00:28;;;;;;;35.17;25.00;;;7.80;66.50;;;;;;5018077;28;20253;-76
2021/03/10 10:02:56;;;;;;;34.63;24.20;;;7.70;66.80;;;;;;5028373;28;20466;-75
2021/03/10 10:05:24;;;;;;;35.50;24.90;;;7.70;67.30;;;;;;5040060;28;20460;-74
2021/03/10 10:07:51;;;;;;;31.60;26.42;;;7.70;67.10;;;;;;5020403;28;20456;-76
2021/03/10 10:10:18;;;;;;;35.27;22.20;;;8.10;66.50;;;;;;5018966;28;20204;-72
2021/03/10 10:12:46;;;;;;;30.07;23.13;;;7.80;64.90;;;;;;5021769;28;20452;-73
2021/03/10 10:15:15;;;;;;;32.47;23.42;;;7.60;65.50;;;;;;5019266;28;20863;-74
2021/03/10 10:17:47;;;;;;;31.37;22.60;;;7.70;65.90;;;;;;5021767;28;20261;-73
2021/03/10 10:20:16;;;;;;;31.47;23.27;;;8.00;64.90;;;;;;5023184;28;20446;-75
2021/03/10 10:22:44;;;;;;;31.03;21.80;;;7.90;64.70;;;;;;5028136;28;20488;-77
2021/03/10 10:25:13;;;;;;;30.07;21.77;;;8.00;63.60;;;;;;5034670;28;20454;-76
2021/03/10 10:27:40;;;;;;;26.55;20.70;;;8.20;63.40;;;;;;5029489;28;20469;-77
2021/03/10 10:30:08;;;;;;;31.47;21.27;;;8.20;63.70;;;;;;5039012;28;20200;-74
2021/03/10 10:32:35;;;;;;;25.65;19.65;;;8.20;63.00;;;;;;5029840;28;20451;-68
2021/03/10 10:35:02;;;;;;;26.77;19.60;;;7.70;62.00;;;;;;5027983;28;20225;-70
2021/03/10 10:37:30;;;;;;;28.43;20.17;;;7.90;62.20;;;;;;5030750;28;20453;-73
2021/03/10 10:39:56;;;;;;;31.27;22.92;;;8.00;62.30;;;;;;5023343;28;20459;-75
2021/03/10 10:42:23;;;;;;;30.15;22.90;;;8.00;62.00;;;;;;5025280;28;20503;-71
2021/03/10 10:44:50;;;;;;;26.23;19.43;;;8.20;60.80;;;;;;5048290;28;20295;-82
2021/03/10 10:47:18;;;;;;;22.73;16.87;;;8.30;59.10;;;;;;5014462;28;20536;-75
2021/03/10 10:49:46;;;;;;;25.80;18.00;;;8.00;58.10;;;;;;5019590;28;20469;-81
2021/03/10 10:52:14;;;;;;;25.90;17.47;;;8.00;58.90;;;;;;5035599;28;20485;-80
2021/03/10 10:54:41;;;;;;;25.00;17.10;;;8.00;58.00;;;;;;5034526;28;20472;-80
2021/03/10 10:57:08;;;;;;;22.30;16.67;;;7.90;58.10;;;;;;5042951;28;20452;-80
2021/03/10 10:59:34;;;;;;;26.37;18.20;;;7.90;57.80;;;;;;5036642;28;20447;-80
2021/03/10 11:02:01;;;;;;;36.77;18.23;;;7.70;58.10;;;;;;5037543;28;20513;-81
2021/03/10 11:04:28;;;;;;;26.30;15.80;;;8.20;57.10;;;;;;5046571;28;20473;-80
2021/03/10 11:06:54;;;;;;;18.67;14.83;;;8.30;56.20;;;;;;5034927;28;20468;-80
2021/03/10 11:09:22;;;;;;;22.80;14.50;;;8.00;55.50;;;;;;5028366;28;20468;-80
2021/03/10 11:11:52;;;;;;;24.77;16.20;;;8.30;55.50;;;;;;5019324;28;20455;-80
2021/03/10 11:14:18;;;;;;;20.53;15.60;;;8.20;55.70;;;;;;5041416;28;20458;-81
2021/03/10 11:16:45;;;;;;;22.17;14.70;;;8.40;56.00;;;;;;5031113;28;20470;-81
2021/03/10 11:19:12;;;;;;;20.83;15.30;;;8.70;54.70;;;;;;5038432;28;20462;-82
2021/03/10 11:21:39;;;;;;;21.35;15.55;;;8.60;54.10;;;;;;5040129;28;20463;-84
2021/03/10 11:24:08;;;;;;;25.98;19.05;;;8.70;54.10;;;;;;5044614;28;20450;-82
2021/03/10 11:26:36;;;;;;;20.07;16.07;;;8.80;54.40;;;;;;5047957;28;20259;-83
2021/03/10 11:29:07;;;;;;;23.75;17.15;;;8.80;53.70;;;;;;5041398;28;20490;-85
2021/03/10 11:31:38;;;;;;;19.90;15.03;;;8.80;53.10;;;;;;5031821;28;20196;-80
2021/03/10 11:34:05;;;;;;;18.90;14.70;;;9.00;53.20;;;;;;5034342;28;20478;-83
2021/03/10 11:36:32;;;;;;;18.53;13.53;;;8.70;52.10;;;;;;5039355;28;20456;-81
2021/03/10 11:39:02;;;;;;;18.43;14.70;;;9.00;52.00;;;;;;5044550;28;20540;-83
2021/03/10 11:41:29;;;;;;;22.60;14.83;;;9.10;52.00;;;;;;5034276;28;20531;-83
2021/03/10 11:43:56;;;;;;;25.80;14.20;;;9.00;52.10;;;;;;5018508;28;20469;-83
2021/03/10 11:46:25;;;;;;;20.63;14.43;;;9.10;51.70;;;;;;5031927;28;20807;-84
2021/03/10 11:48:52;;;;;;;21.65;16.02;;;9.00;52.10;;;;;;5029936;28;20457;-78
2021/03/10 11:51:18;;;;;;;26.97;15.67;;;9.10;51.40;;;;;;5035352;28;20449;-85
2021/03/10 11:53:45;;;;;;;45.70;13.20;;;8.80;50.40;;;;;;5036886;28;20552;-82
2021/03/10 11:56:11;;;;;;;15.30;12.30;;;8.30;50.20;;;;;;5045578;28;20455;-82
2021/03/10 11:58:39;;;;;;;20.60;13.07;;;8.50;50.00;;;;;;5039565;28;20433;-77
2021/03/10 12:01:05;;;;;;;22.53;11.70;;;8.60;49.90;;;;;;5033202;28;20456;-79
2021/03/10 12:03:33;;;;;;;38.83;13.00;;;8.80;49.50;;;;;;5028261;28;20560;-79
2021/03/10 12:06:00;;;;;;;13.17;10.90;;;8.90;49.10;;;;;;5025111;28;20464;-78
2021/03/10 12:08:27;;;;;;;12.80;10.30;;;9.10;48.60;;;;;;5042443;28;20475;-80
2021/03/10 12:10:53;;;;;;;13.43;11.10;;;9.10;48.00;;;;;;5068228;28;20436;-86
2021/03/10 12:13:20;;;;;;;16.03;11.60;;;8.90;47.90;;;;;;5054780;28;20464;-81
2021/03/10 12:15:46;;;;;;;14.17;11.27;;;8.60;48.50;;;;;;5046668;28;20442;-79
2021/03/10 12:18:13;;;;;;;16.37;11.63;;;8.80;48.60;;;;;;5041430;28;20456;-83
2021/03/10 12:20:40;;;;;;;15.60;11.10;;;8.60;47.70;;;;;;5029564;28;20568;-77
2021/03/10 12:23:07;;;;;;;17.03;10.10;;;8.40;47.80;;;;;;5041519;28;20907;-77
2021/03/10 12:25:33;;;;;;;13.60;11.20;;;8.50;48.10;;;;;;5036380;28;20519;-79
2021/03/10 12:27:59;;;;;;;16.47;11.70;;;8.50;48.00;;;;;;5041516;28;20553;-79
2021/03/10 12:30:26;;;;;;;15.37;11.80;;;8.70;48.10;;;;;;5026724;28;20451;-77
2021/03/10 12:32:52;;;;;;;19.37;12.17;;;8.80;48.00;;;;;;5030503;28;20458;-76
2021/03/10 12:35:19;;;;;;;14.33;11.17;;;9.00;48.10;;;;;;5026503;28;20961;-77
2021/03/10 12:37:46;;;;;;;10.90;9.60;;;9.10;47.90;;;;;;5031899;28;20460;-78
2021/03/10 12:40:14;;;;;;;15.33;11.40;;;8.70;46.20;;;;;;5028818;28;20466;-79